Arkansas Post National Memor, Arkansas
Current Conditions -  °F | °C
As of 4:53 AM on Friday 28 Nov 2014 (Local Time) from KPBF Reporting Station
Clear Clear  
Wind Chill: 25°   Ceiling: Unl
Heat Index: 30°   Visibility: 9mi
Dew Point: 27°   Wind: 5mph
Humidity: 88%   Direction: 170°S
Pressure: 30.39"   Gusts: NA
Location:  34.1564°N, 91.3915°W
Report Text: KPBF 281053Z AUTO 17004KT 9SM CLR M01/M03 A3039 RMK AO2 SLP291 T10111028
Loading
Personal Weather Stations






























Interactive Weather Map New forecast layout! Learn more

10-Day Weather Forecast

Advertisements
Track Severe Weather on mobile